createdAt,value
2023-04-17T00:01:44.873Z,96278.16
2023-04-17T00:04:14.622Z,96273.09
2023-04-17T00:06:44.677Z,96276.31
2023-04-17T00:09:13.360Z,96266.81
2023-04-17T00:11:41.560Z,96267.63
2023-04-17T00:14:09.649Z,96268.19
2023-04-17T00:16:37.818Z,96274.31
2023-04-17T00:19:06.047Z,96270.84
2023-04-17T00:21:35.498Z,96272.69
2023-04-17T00:24:04.151Z,96265.53
2023-04-17T00:26:34.551Z,96277.22
2023-04-17T00:29:02.872Z,96267.19
2023-04-17T00:31:31.917Z,96272.88
2023-04-17T00:34:01.448Z,96264.59
2023-04-17T00:36:31.902Z,96265.94
2023-04-17T00:39:01.370Z,96259.34
2023-04-17T00:41:29.441Z,96266.75
2023-04-17T00:43:57.584Z,96261.66
2023-04-17T00:46:25.817Z,96265.13
2023-04-17T00:48:54.362Z,96263.28
2023-04-17T00:51:22.452Z,96262.72
2023-04-17T00:53:50.525Z,96253.44
2023-04-17T00:56:19.979Z,96260.38
2023-04-17T00:58:48.017Z,96261.44
2023-04-17T01:01:16.114Z,96253.59
2023-04-17T01:03:44.832Z,96254.63
2023-04-17T01:06:13.445Z,96252.78
2023-04-17T01:08:44.872Z,96255.22
2023-04-17T01:11:13.588Z,96257.88
2023-04-17T01:13:49.597Z,96251.50
2023-04-17T01:16:18.361Z,96254.97
2023-04-17T01:18:48.323Z,96260.88
2023-04-17T01:21:16.781Z,96265.13
2023-04-17T01:23:46.416Z,96257.88
2023-04-17T01:26:18.469Z,96259.97
2023-04-17T01:28:51.534Z,96261.00
2023-04-17T01:31:20.967Z,96259.38
2023-04-17T01:33:49.366Z,96262.63
2023-04-17T01:36:17.487Z,96264.47
2023-04-17T01:38:45.702Z,96269.22
2023-04-17T01:41:14.044Z,96267.03
2023-04-17T01:43:44.177Z,96261.97
2023-04-17T01:46:12.436Z,96266.47
2023-04-17T01:48:40.761Z,96267.28
2023-04-17T01:51:08.889Z,96265.44
2023-04-17T01:53:39.166Z,96264.63
2023-04-17T01:56:08.035Z,96274.09
2023-04-17T01:58:36.863Z,96275.94
2023-04-17T02:01:07.294Z,96272.63
2023-04-17T02:03:35.586Z,96270.53
2023-04-17T02:06:03.884Z,96268.94
2023-04-17T02:08:31.919Z,96269.16
2023-04-17T02:11:00.677Z,96269.63
2023-04-17T02:13:28.956Z,96269.63
2023-04-17T02:15:57.971Z,96277.03
2023-04-17T02:18:31.706Z,96276.47
2023-04-17T02:21:01.577Z,96274.25
2023-04-17T02:23:29.742Z,96280.16
2023-04-17T02:25:58.367Z,96281.94
2023-04-17T02:28:26.426Z,96277.97
2023-04-17T02:30:54.705Z,96278.44
2023-04-17T02:33:22.833Z,96276.84
2023-04-17T02:35:52.720Z,96279.50
2023-04-17T02:38:25.954Z,96288.16
2023-04-17T02:40:54.450Z,96283.88
2023-04-17T02:43:22.519Z,96292.31
2023-04-17T02:45:51.375Z,96286.19
2023-04-17T02:48:19.454Z,96284.31
2023-04-17T02:50:47.544Z,96285.72
2023-04-17T02:53:20.903Z,96284.22
2023-04-17T02:55:50.139Z,96282.59
2023-04-17T02:58:21.117Z,96281.44
2023-04-17T03:00:49.241Z,96283.78
2023-04-17T03:03:19.392Z,96287.78
2023-04-17T03:05:48.216Z,96282.69
2023-04-17T03:08:16.331Z,96276.03
2023-04-17T03:10:50.977Z,96283.56
2023-04-17T03:13:19.135Z,96285.19
2023-04-17T03:15:47.707Z,96285.78
2023-04-17T03:18:16.185Z,96286.09
2023-04-17T03:20:44.300Z,96289.91
2023-04-17T03:23:12.369Z,96286.91
2023-04-17T03:25:40.504Z,96291.75
2023-04-17T03:28:11.205Z,96293.25
2023-04-17T03:30:40.186Z,96288.53
2023-04-17T03:33:10.264Z,96286.34
2023-04-17T03:35:38.383Z,96293.25
2023-04-17T03:38:08.982Z,96295.09
2023-04-17T03:40:37.071Z,96297.66
2023-04-17T03:43:05.528Z,96293.97
2023-04-17T03:45:36.086Z,96300.69
2023-04-17T03:48:05.162Z,96292.72
2023-04-17T03:50:34.353Z,96293.25
2023-04-17T03:53:02.467Z,96299.66
2023-04-17T03:55:31.899Z,96292.94
2023-04-17T03:58:00.384Z,96295.38
2023-04-17T04:00:31.882Z,96294.78
2023-04-17T04:03:07.415Z,96295.81
2023-04-17T04:05:40.594Z,96296.03
2023-04-17T04:08:10.326Z,96306.00
2023-04-17T04:10:45.491Z,96293.75
2023-04-17T04:13:17.805Z,96311.66
2023-04-17T04:15:52.921Z,96305.06
2023-04-17T04:18:24.922Z,96304.03
2023-04-17T04:20:53.526Z,96309.34
2023-04-17T04:23:28.202Z,96311.78
2023-04-17T04:25:57.940Z,96314.31
2023-04-17T04:28:35.966Z,96310.28
2023-04-17T04:31:04.667Z,96312.00
2023-04-17T04:33:39.712Z,96312.81
2023-04-17T04:36:08.258Z,96321.38
2023-04-17T04:38:37.886Z,96315.47
2023-04-17T04:41:15.538Z,96321.00
2023-04-17T04:43:43.883Z,96317.91
2023-04-17T04:46:12.871Z,96321.00
2023-04-17T04:48:47.002Z,96318.94
2023-04-17T04:51:15.081Z,96323.78
2023-04-17T04:53:45.361Z,96329.13
2023-04-17T04:56:15.990Z,96322.75
2023-04-17T04:58:46.363Z,96327.81
2023-04-17T05:01:14.906Z,96321.25
2023-04-17T05:03:48.007Z,96331.66
2023-04-17T05:06:23.129Z,96333.28
2023-04-17T05:08:57.484Z,96333.84
2023-04-17T05:11:26.954Z,96333.63
2023-04-17T05:13:55.033Z,96338.34
2023-04-17T05:16:30.158Z,96339.41
2023-04-17T05:19:00.611Z,96334.88
2023-04-17T05:21:46.286Z,96339.97
2023-04-17T05:24:14.794Z,96342.38
2023-04-17T05:26:42.927Z,96347.47
2023-04-17T05:29:11.247Z,96345.84
2023-04-17T05:31:39.455Z,96344.72
2023-04-17T05:34:17.660Z,96346.34
2023-04-17T05:36:46.373Z,96348.50
2023-04-17T05:39:15.373Z,96350.72
2023-04-17T05:41:43.421Z,96348.06
2023-04-17T05:44:11.469Z,96350.13
2023-04-17T05:46:39.663Z,96352.34
2023-04-17T05:49:07.708Z,96352.94
2023-04-17T05:51:37.593Z,96355.81
2023-04-17T05:54:05.852Z,96359.06
2023-04-17T05:56:34.518Z,96358.00
2023-04-17T05:59:04.063Z,96350.59
2023-04-17T06:01:32.539Z,96354.06
2023-04-17T06:04:02.166Z,96358.00
2023-04-17T06:06:31.456Z,96351.75
2023-04-17T06:09:01.026Z,96353.84
2023-04-17T06:11:29.099Z,96355.59
2023-04-17T06:13:57.307Z,96356.84
2023-04-17T06:16:26.579Z,96362.53
2023-04-17T06:18:54.713Z,96360.19
2023-04-17T06:21:22.815Z,96369.69
2023-04-17T06:23:51.445Z,96364.97
2023-04-17T06:26:21.383Z,96369.34
2023-04-17T06:28:51.191Z,96365.41
2023-04-17T06:31:19.687Z,96366.44
2023-04-17T06:33:50.128Z,96364.84
2023-04-17T06:36:21.067Z,96369.91
2023-04-17T06:38:51.066Z,96375.47
2023-04-17T06:41:22.987Z,96373.94
2023-04-17T06:43:51.496Z,96376.59
2023-04-17T06:46:19.616Z,96377.41
2023-04-17T06:48:49.424Z,96379.13
2023-04-17T06:51:20.700Z,96375.91
2023-04-17T06:53:49.001Z,96385.97
2023-04-17T06:56:17.063Z,96380.16
2023-04-17T06:58:46.817Z,96387.47
2023-04-17T07:01:15.318Z,96388.38
2023-04-17T07:03:43.922Z,96390.72
2023-04-17T07:06:12.217Z,96389.91
2023-04-17T07:08:40.382Z,96392.06
2023-04-17T07:11:08.504Z,96395.53
2023-04-17T07:13:36.655Z,96394.72
2023-04-17T07:16:06.877Z,96392.66
2023-04-17T07:18:35.007Z,96395.22
2023-04-17T07:21:03.118Z,96404.13
2023-04-17T07:23:31.192Z,96402.84
2023-04-17T07:25:59.654Z,96404.22
2023-04-17T07:28:27.767Z,96401.81
2023-04-17T07:30:58.276Z,96412.22
2023-04-17T07:33:27.852Z,96408.06
2023-04-17T07:35:55.936Z,96415.34
2023-04-17T07:38:24.032Z,96417.91
2023-04-17T07:40:52.521Z,96416.50
2023-04-17T07:43:20.707Z,96412.91
2023-04-17T07:45:49.097Z,96415.25
2023-04-17T07:48:18.633Z,96416.63
2023-04-17T07:50:48.064Z,96417.78
2023-04-17T07:53:16.612Z,96424.94
2023-04-17T07:55:44.696Z,96424.13
2023-04-17T07:58:12.785Z,96422.78
2023-04-17T08:00:41.353Z,96422.78
2023-04-17T08:03:09.696Z,96430.41
2023-04-17T08:05:37.914Z,96429.91
2023-04-17T08:08:07.959Z,96436.53
2023-04-17T08:10:36.166Z,96436.31
2023-04-17T08:13:04.220Z,96435.59
2023-04-17T08:15:32.770Z,96432.94
2023-04-17T08:18:00.945Z,96439.88
2023-04-17T08:20:29.256Z,96439.50
2023-04-17T08:22:57.412Z,96440.69
2023-04-17T08:25:27.202Z,96439.97
2023-04-17T08:27:55.911Z,96440.56
2023-04-17T08:30:24.570Z,96451.34
2023-04-17T08:32:53.151Z,96447.38
2023-04-17T08:35:21.847Z,96453.72
2023-04-17T08:37:49.931Z,96446.09
2023-04-17T08:40:18.850Z,96452.91
2023-04-17T08:42:49.611Z,96450.59
2023-04-17T08:45:17.687Z,96463.47
2023-04-17T08:47:46.195Z,96457.31
2023-04-17T08:50:15.221Z,96458.16
2023-04-17T08:52:43.759Z,96462.06
2023-04-17T08:55:14.014Z,96457.56
2023-04-17T08:58:01.032Z,96463.47
2023-04-17T09:00:30.849Z,96468.34
2023-04-17T09:02:59.992Z,96464.41
2023-04-17T09:05:30.395Z,96462.66
2023-04-17T09:08:10.113Z,96458.59
2023-04-17T09:10:38.804Z,96465.22
2023-04-17T09:13:08.729Z,96462.66
2023-04-17T09:15:37.508Z,96470.28
2023-04-17T09:18:05.722Z,96471.47
2023-04-17T09:20:33.921Z,96471.69
2023-04-17T09:23:02.778Z,96472.03
2023-04-17T09:25:31.012Z,96468.34
2023-04-17T09:28:11.640Z,96468.00
2023-04-17T09:30:41.365Z,96476.56
2023-04-17T09:33:09.871Z,96477.69
2023-04-17T09:35:39.853Z,96479.66
2023-04-17T09:38:08.425Z,96473.84
2023-04-17T09:40:40.255Z,96473.19
2023-04-17T09:43:10.061Z,96480.47
2023-04-17T09:45:40.118Z,96485.44
2023-04-17T09:48:10.490Z,96478.97
2023-04-17T09:50:39.003Z,96479.44
2023-04-17T09:53:07.778Z,96478.97
2023-04-17T09:55:37.986Z,96477.25
2023-04-17T09:58:07.478Z,96486.63
2023-04-17T10:00:37.847Z,96490.19
2023-04-17T10:03:06.209Z,96495.28
2023-04-17T10:05:35.801Z,96495.19
2023-04-17T10:08:04.124Z,96491.81
2023-04-17T10:10:33.950Z,96486.25
2023-04-17T10:13:03.982Z,96487.22
2023-04-17T10:15:32.255Z,96490.19
2023-04-17T10:18:23.228Z,96484.78
2023-04-17T10:20:53.813Z,96486.63
2023-04-17T10:23:32.720Z,96489.97
2023-04-17T10:26:43.519Z,96495.19
2023-04-17T10:29:12.816Z,96491.38
2023-04-17T10:32:28.652Z,96491.72
2023-04-17T10:34:58.290Z,96490.44
2023-04-17T10:37:56.529Z,96492.06
2023-04-17T10:40:27.257Z,96495.19
2023-04-17T10:43:03.642Z,96494.16
2023-04-17T10:45:59.567Z,96497.97
2023-04-17T10:48:29.016Z,96492.66
2023-04-17T10:50:57.307Z,96491.94
2023-04-17T10:53:39.076Z,96495.78
2023-04-17T10:56:08.558Z,96489.28
2023-04-17T10:58:39.435Z,96488.38
2023-04-17T11:01:11.960Z,96497.28
2023-04-17T11:03:40.181Z,96494.16
2023-04-17T11:06:08.884Z,96498.44
2023-04-17T11:08:36.959Z,96498.19
2023-04-17T11:11:05.205Z,96498.53
2023-04-17T11:13:35.712Z,96494.03
2023-04-17T11:16:05.150Z,96495.06
2023-04-17T11:18:33.259Z,96492.63
2023-04-17T11:21:02.354Z,96495.75
2023-04-17T11:23:34.059Z,96498.78
2023-04-17T11:26:02.378Z,96496.13
2023-04-17T11:28:30.594Z,96498.09
2023-04-17T11:31:00.123Z,96493.31
2023-04-17T11:33:28.589Z,96495.97
2023-04-17T11:35:56.749Z,96496.91
2023-04-17T11:38:24.884Z,96498.09
2023-04-17T11:40:54.203Z,96505.47
2023-04-17T11:43:22.801Z,96507.31
2023-04-17T11:45:52.032Z,96494.03
2023-04-17T11:48:23.860Z,96502.34
2023-04-17T11:50:55.199Z,96493.22
2023-04-17T11:53:23.295Z,96493.22
2023-04-17T11:56:14.396Z,96502.13
2023-04-17T11:58:52.375Z,96508.00
2023-04-17T12:01:21.925Z,96510.41
2023-04-17T12:03:51.593Z,96516.88
2023-04-17T12:06:19.856Z,96515.13
2023-04-17T12:08:50.212Z,96521.72
2023-04-17T12:11:24.300Z,96512.34
2023-04-17T12:13:52.527Z,96510.16
2023-04-17T12:16:20.789Z,96524.03
2023-04-17T12:18:48.947Z,96514.44
2023-04-17T12:21:19.319Z,96514.28
2023-04-17T12:23:47.383Z,96518.78
2023-04-17T12:26:16.034Z,96510.81
2023-04-17T12:28:44.229Z,96518.69
2023-04-17T12:31:12.749Z,96512.94
2023-04-17T12:33:41.587Z,96519.19
2023-04-17T12:36:10.166Z,96516.06
2023-04-17T12:38:39.612Z,96513.31
2023-04-17T12:41:08.127Z,96517.72
2023-04-17T12:43:36.192Z,96510.56
2023-04-17T12:46:04.486Z,96520.97
2023-04-17T12:48:33.196Z,96505.72
2023-04-17T12:51:01.408Z,96515.78
2023-04-17T12:53:30.086Z,96521.47
2023-04-17T12:55:59.676Z,96516.94
2023-04-17T12:58:27.803Z,96513.22
2023-04-17T13:00:55.875Z,96510.81
2023-04-17T13:03:24.157Z,96509.75
2023-04-17T13:05:53.549Z,96516.59
2023-04-17T13:08:21.719Z,96519.28
2023-04-17T13:10:49.787Z,96514.41
2023-04-17T13:13:19.215Z,96517.66
2023-04-17T13:15:47.612Z,96522.50
2023-04-17T13:18:15.706Z,96519.94
2023-04-17T13:20:43.889Z,96513.81
2023-04-17T13:23:12.029Z,96518.53
2023-04-17T13:25:40.150Z,96512.41
2023-04-17T13:28:08.614Z,96516.53
2023-04-17T13:30:38.186Z,96517.56
2023-04-17T13:33:06.688Z,96516.75
2023-04-17T13:35:34.815Z,96516.31
2023-04-17T13:38:03.277Z,96513.31
2023-04-17T13:40:31.630Z,96519.44
2023-04-17T13:43:00.513Z,96521.63
2023-04-17T13:45:28.662Z,96511.59
2023-04-17T13:48:00.339Z,96511.13
2023-04-17T13:50:28.672Z,96520.00
2023-04-17T13:52:56.778Z,96518.16
2023-04-17T13:55:25.042Z,96517.72
2023-04-17T13:57:54.231Z,96513.22
2023-04-17T14:00:22.821Z,96516.91
2023-04-17T14:02:51.499Z,96518.66
2023-04-17T14:05:21.061Z,96514.91
2023-04-17T14:07:49.149Z,96516.75
2023-04-17T14:10:17.292Z,96514.22
2023-04-17T14:12:45.392Z,96526.47
2023-04-17T14:15:14.232Z,96517.47
2023-04-17T14:17:43.397Z,96518.06
2023-04-17T14:20:12.476Z,96521.16
2023-04-17T14:22:41.954Z,96511.69
2023-04-17T14:25:10.670Z,96520.13
2023-04-17T14:27:38.749Z,96515.25
2023-04-17T14:30:08.348Z,96521.84
2023-04-17T14:32:38.597Z,96515.47
2023-04-17T14:35:07.671Z,96514.09
2023-04-17T14:37:35.773Z,96511.78
2023-04-17T14:40:06.036Z,96521.03
2023-04-17T14:42:40.699Z,96518.13
2023-04-17T14:45:15.921Z,96511.06
2023-04-17T14:47:44.163Z,96514.78
2023-04-17T14:50:12.371Z,96506.19
2023-04-17T14:52:40.512Z,96507.25
2023-04-17T14:55:11.580Z,96509.91
2023-04-17T14:57:41.152Z,96513.84
2023-04-17T15:00:10.207Z,96508.06
2023-04-17T15:02:39.480Z,96512.69
2023-04-17T15:05:08.579Z,96512.13
2023-04-17T15:07:36.646Z,96513.75
2023-04-17T15:10:05.218Z,96517.22
2023-04-17T15:12:35.215Z,96516.16
2023-04-17T15:15:03.338Z,96516.28
2023-04-17T15:17:31.503Z,96513.28
2023-04-17T15:20:00.799Z,96514.56
2023-04-17T15:22:28.875Z,96510.25
2023-04-17T15:24:57.337Z,96516.41
2023-04-17T15:27:25.481Z,96524.59
2023-04-17T15:29:54.921Z,96524.81
2023-04-17T15:32:23.097Z,96512.81
2023-04-17T15:34:51.209Z,96511.78
2023-04-17T15:37:19.287Z,96524.47
2023-04-17T15:39:49.207Z,96519.00
2023-04-17T15:42:17.296Z,96516.72
2023-04-17T15:44:45.326Z,96513.84
2023-04-17T15:47:14.854Z,96520.41
2023-04-17T15:49:43.345Z,96517.53
2023-04-17T15:52:11.376Z,96517.75
2023-04-17T15:54:40.029Z,96512.56
2023-04-17T15:57:08.137Z,96514.97
2023-04-17T15:59:36.257Z,96525.38
2023-04-17T16:02:04.548Z,96519.59
2023-04-17T16:04:34.424Z,96520.19
2023-04-17T16:07:02.926Z,96530.03
2023-04-17T16:09:30.974Z,96529.22
2023-04-17T16:11:59.424Z,96530.94
2023-04-17T16:14:27.896Z,96533.00
2023-04-17T16:16:56.091Z,96539.13
2023-04-17T16:19:25.057Z,96540.16
2023-04-17T16:21:55.786Z,96536.47
2023-04-17T16:24:23.855Z,96534.69
2023-04-17T16:26:54.678Z,96537.81
2023-04-17T16:29:22.741Z,96530.88
2023-04-17T16:31:50.929Z,96534.22
2023-04-17T16:34:19.467Z,96535.72
2023-04-17T16:36:47.611Z,96534.31
2023-04-17T16:39:17.112Z,96531.88
2023-04-17T16:41:45.201Z,96540.28
2023-04-17T16:44:13.636Z,96535.22
2023-04-17T16:46:59.219Z,96539.72
2023-04-17T16:49:29.919Z,96534.97
2023-04-17T16:51:59.228Z,96538.66
2023-04-17T16:54:28.680Z,96542.22
2023-04-17T16:56:57.098Z,96535.16
2023-04-17T16:59:25.308Z,96542.66
2023-04-17T17:01:53.807Z,96543.72
2023-04-17T17:04:22.011Z,96544.56
2023-04-17T17:06:50.074Z,96544.72
2023-04-17T17:09:19.008Z,96545.31
2023-04-17T17:11:48.610Z,96550.41
2023-04-17T17:14:17.158Z,96557.44
2023-04-17T17:16:45.681Z,96556.19
2023-04-17T17:19:14.777Z,96555.94
2023-04-17T17:21:43.054Z,96549.59
2023-04-17T17:24:11.256Z,96555.94
2023-04-17T17:26:39.353Z,96547.75
2023-04-17T17:29:09.267Z,96561.03
2023-04-17T17:31:37.354Z,96561.19
2023-04-17T17:34:22.578Z,96554.47
2023-04-17T17:36:53.574Z,96557.50
2023-04-17T17:39:22.410Z,96569.50
2023-04-17T17:41:50.664Z,96555.66
2023-04-17T17:44:20.636Z,96560.72
2023-04-17T17:46:48.734Z,96566.41
2023-04-17T17:49:17.489Z,96554.59
2023-04-17T17:51:45.590Z,96564.88
2023-04-17T17:54:13.967Z,96566.94
2023-04-17T17:56:42.227Z,96563.91
2023-04-17T17:59:10.397Z,96555.81
2023-04-17T18:01:40.313Z,96558.31
2023-04-17T18:04:08.891Z,96560.63
2023-04-17T18:06:37.297Z,96555.53
2023-04-17T18:09:05.492Z,96553.91
2023-04-17T18:11:33.991Z,96564.72
2023-04-17T18:14:02.101Z,96555.81
2023-04-17T18:16:32.738Z,96555.06
2023-04-17T18:19:04.745Z,96555.50
2023-04-17T18:21:32.887Z,96559.59
2023-04-17T18:24:01.813Z,96562.47
2023-04-17T18:26:30.346Z,96563.16
2023-04-17T18:28:58.451Z,96563.97
2023-04-17T18:31:28.355Z,96570.09
2023-04-17T18:33:56.526Z,96573.19
2023-04-17T18:36:26.208Z,96575.63
2023-04-17T18:38:54.801Z,96560.72
2023-04-17T18:41:23.030Z,96570.75
2023-04-17T18:43:51.103Z,96574.06
2023-04-17T18:46:19.297Z,96565.50
2023-04-17T18:48:47.584Z,96575.75
2023-04-17T18:51:15.714Z,96571.75
2023-04-17T18:53:45.607Z,96575.34
2023-04-17T18:56:14.974Z,96571.91
2023-04-17T18:58:43.367Z,96574.66
2023-04-17T19:01:11.521Z,96575.94
2023-04-17T19:03:39.850Z,96573.78
2023-04-17T19:06:08.604Z,96581.72
2023-04-17T19:08:36.695Z,96577.31
2023-04-17T19:11:06.273Z,96587.94
2023-04-17T19:13:34.307Z,96584.31
2023-04-17T19:16:02.540Z,96580.91
2023-04-17T19:18:31.038Z,96584.38
2023-04-17T19:20:59.105Z,96583.00
2023-04-17T19:23:27.194Z,96580.16
2023-04-17T19:25:55.627Z,96580.41
2023-04-17T19:28:25.346Z,96578.84
2023-04-17T19:30:53.916Z,96578.22
2023-04-17T19:33:22.974Z,96584.78
2023-04-17T19:35:52.322Z,96583.00
2023-04-17T19:38:20.497Z,96579.53
2023-04-17T19:41:08.624Z,96578.53
2023-04-17T19:43:38.159Z,96575.31
2023-04-17T19:46:08.637Z,96574.72
2023-04-17T19:48:36.926Z,96584.94
2023-04-17T19:51:06.483Z,96578.66
2023-04-17T19:53:35.356Z,96571.94
2023-04-17T19:56:03.456Z,96577.22
2023-04-17T19:58:31.910Z,96571.31
2023-04-17T20:01:01.488Z,96571.13
2023-04-17T20:03:30.366Z,96572.34
2023-04-17T20:05:58.803Z,96575.63
2023-04-17T20:08:26.964Z,96575.22
2023-04-17T20:10:55.325Z,96571.16
2023-04-17T20:13:23.378Z,96574.00
2023-04-17T20:15:51.537Z,96576.84
2023-04-17T20:18:21.002Z,96573.81
2023-04-17T20:20:49.153Z,96574.84
2023-04-17T20:23:17.271Z,96577.06
2023-04-17T20:25:46.447Z,96579.72
2023-04-17T20:28:14.506Z,96575.41
2023-04-17T20:30:42.503Z,96573.16
2023-04-17T20:33:10.685Z,96579.44
2023-04-17T20:35:40.482Z,96584.28
2023-04-17T20:38:08.928Z,96586.09
2023-04-17T20:40:36.988Z,96587.69
2023-04-17T20:43:05.036Z,96583.38
2023-04-17T20:45:33.130Z,96579.47
2023-04-17T20:48:01.895Z,96585.53
2023-04-17T20:50:30.082Z,96588.56
2023-04-17T20:52:59.917Z,96589.59
2023-04-17T20:55:28.182Z,96589.75
2023-04-17T20:57:56.263Z,96583.81
2023-04-17T21:00:24.363Z,96585.81
2023-04-17T21:02:52.644Z,96586.63
2023-04-17T21:05:20.846Z,96583.75
2023-04-17T21:07:50.858Z,96579.06
2023-04-17T21:10:21.253Z,96583.09
2023-04-17T21:12:49.360Z,96580.44
2023-04-17T21:15:17.502Z,96583.72
2023-04-17T21:17:47.651Z,96585.13
2023-04-17T21:20:16.085Z,96593.47
2023-04-17T21:22:44.152Z,96580.22
2023-04-17T21:25:12.226Z,96583.44
2023-04-17T21:27:43.768Z,96583.03
2023-04-17T21:30:12.382Z,96579.56
2023-04-17T21:32:40.758Z,96580.16
2023-04-17T21:35:09.961Z,96576.09
2023-04-17T21:37:38.007Z,96582.22
2023-04-17T21:40:06.901Z,96584.84
2023-04-17T21:42:34.973Z,96583.44
2023-04-17T21:45:04.657Z,96583.22
2023-04-17T21:47:32.764Z,96577.72
2023-04-17T21:50:01.215Z,96580.38
2023-04-17T21:52:29.352Z,96576.69
2023-04-17T21:55:02.867Z,96579.56
2023-04-17T21:57:31.169Z,96579.34
2023-04-17T21:59:59.223Z,96583.63
2023-04-17T22:02:29.322Z,96580.16
2023-04-17T22:04:57.515Z,96581.34
2023-04-17T22:07:25.668Z,96583.19
2023-04-17T22:09:53.746Z,96572.97
2023-04-17T22:12:21.788Z,96572.97
2023-04-17T22:14:50.325Z,96570.31
2023-04-17T22:17:18.469Z,96564.41
2023-04-17T22:19:47.991Z,96567.06
2023-04-17T22:22:16.471Z,96568.88
2023-04-17T22:24:44.609Z,96579.06
2023-04-17T22:27:12.669Z,96580.31
2023-04-17T22:29:41.154Z,96576.44
2023-04-17T22:32:09.288Z,96583.78
2023-04-17T22:34:37.452Z,96586.22
2023-04-17T22:37:06.942Z,96585.19
2023-04-17T22:39:35.079Z,96578.47
2023-04-17T22:42:03.144Z,96583.97
2023-04-17T22:44:31.644Z,96579.25
2023-04-17T22:46:59.712Z,96575.78
2023-04-17T22:49:27.970Z,96573.56
2023-04-17T22:51:56.083Z,96579.75
2023-04-17T22:54:25.931Z,96578.69
2023-04-17T22:56:54.628Z,96585.19
2023-04-17T22:59:22.692Z,96588.06
2023-04-17T23:01:50.921Z,96591.53
2023-04-17T23:04:19.052Z,96588.28
2023-04-17T23:06:47.176Z,96586.44
2023-04-17T23:09:15.612Z,96586.44
2023-04-17T23:11:45.070Z,96576.84
2023-04-17T23:14:13.376Z,96585.81
2023-04-17T23:16:41.700Z,96584.59
2023-04-17T23:19:09.805Z,96573.63
2023-04-17T23:21:37.929Z,96583.41
2023-04-17T23:24:06.659Z,96581.34
2023-04-17T23:26:34.738Z,96576.50
2023-04-17T23:29:04.277Z,96568.88
2023-04-17T23:31:32.366Z,96580.16
2023-04-17T23:34:00.447Z,96579.94
2023-04-17T23:36:28.621Z,96579.75
2023-04-17T23:38:57.026Z,96566.47
2023-04-17T23:41:26.676Z,96574.44
2023-04-17T23:43:56.051Z,96576.03
2023-04-17T23:46:25.635Z,96584.00
2023-04-17T23:48:53.687Z,96574.44
2023-04-17T23:51:22.073Z,96568.53
2023-04-17T23:53:50.181Z,96573.03
2023-04-17T23:56:22.151Z,96557.31
2023-04-17T23:58:50.329Z,96565.69
